Sault Ste Marie Airport
CYAM : rendu visible

Aérodrome :











RETROUVEZ-NOUS SUR...

 
LOGIN :

S'inscrire | Disclaimer

   EN    FR    IT 

 









Légende :    VFR   VFR Marginal   IFR   IFR Intensif   IFR Très Intensif
Visi : 
Plafond : 
>= 8 km
>= 3000ft
5 à 8 km
1000 à 3000 ft
1500m à 5 km
500 à 1000 ft
800 à 1500m
200 à 500 ft
< 800m
< 200 ft
Symboles :   Orages  Brouillard  Fortes neiges  Fortes précipitations  Vent > 20 kt






- Altitude de l'aérodrome : 630 ft
- Code IATA : YAM


CYAM - Sault Ste Marie

DERNIER METAR :
  • 281800Z 28004KT 270V010 10SM -SHRA FEW008 FEW013 BKN030 BKN079 BKN250 21/18 A2979 RMK CF1CU1CU3AC2CI1 CI TR /R15/ SLP088 DENSITY ALT 1700FT

METARs EXPIRÉS :
  • 281700Z 21002KT 4SM -SHRA BR FEW009 BKN030TCU OVC100 18/18 A2983 RMK SF1TCU4ACC3 VIS VBR 3-5 CLD HGT ESTD SLP102 DENSITY ALT 1300FT
  • 281636Z 19005KT 4SM -SHRA BR FEW009 BKN030TCU OVC100 18/17 A2984 RMK SF1TCU6ACC2 SF TR VIS VRB 3-5 CLD HGT ESTD SLP106 DENSITY ALT 1300FT
  • 281600Z 19007KT 160V220 3SM SHRA BR FEW009 BKN030TCU OVC100 18/17 A2985 RMK SF1TCU5ACC2 VIS VRB 2 1/4 - 4 CLD HGT ESTD SLP110 DENSITY ALT 1200FT

TAF AMD TAF CYAM
Valide du 28 à 15h jusqu'au 29 à 02h UTC


281544Z 2815/2902 VRB03KT 6SM -SHRA BR SCT009 BKN030
TEMPO 2815/2818 VRB15G25KT 1SM +TSRA BR BKN009 OVC030CB
FM281800 31012KT P6SM -RA OVC030
TEMPO 2818/2902 1SM SHRA BR OVC008 RMK NXT FCST BY 282000Z
FIR CZYZ / Amérique du Nord



MET'MAP, la Météo Aéronautique d'un coup d'oeil ! - Copyright ORBIFLY Décembre 2007 - Disclaimer

ORBIFLY MET'MAP TEAM :

Programmation & Développement : Alexandra Zaïnal
Sur une idée originale de : Baudouin d'Aumeries
Assistance à la programmation : Marc-Olivier Méhu
Soutien technique & logistique : Manuel Goepfert

Contact : metmap@orbifly.com




SOURCES & CREDITS :

   NOAA       Earth
Advisory